createdAt,value
2018-03-29T00:00:28.719Z,875.82
2018-03-29T00:01:28.696Z,875.88
2018-03-29T00:02:28.693Z,875.86
2018-03-29T00:03:28.676Z,875.85
2018-03-29T00:04:28.664Z,875.87
2018-03-29T00:05:28.648Z,875.87
2018-03-29T00:06:28.641Z,875.86
2018-03-29T00:07:28.624Z,875.86
2018-03-29T00:08:28.622Z,875.88
2018-03-29T00:09:28.597Z,875.89
2018-03-29T00:10:28.586Z,875.91
2018-03-29T00:11:28.573Z,875.90
2018-03-29T00:12:28.564Z,875.91
2018-03-29T00:13:28.546Z,875.91
2018-03-29T00:14:28.533Z,875.93
2018-03-29T00:15:28.524Z,875.97
2018-03-29T00:16:28.511Z,875.98
2018-03-29T00:17:28.500Z,875.97
2018-03-29T00:18:28.484Z,876.00
2018-03-29T00:19:28.468Z,875.96
2018-03-29T00:20:28.460Z,875.95
2018-03-29T00:21:28.449Z,875.95
2018-03-29T00:22:28.430Z,875.91
2018-03-29T00:23:28.422Z,875.91
2018-03-29T00:24:28.411Z,875.87
2018-03-29T00:25:28.395Z,875.87
2018-03-29T00:26:28.386Z,875.84
2018-03-29T00:27:28.378Z,875.88
2018-03-29T00:28:28.354Z,875.91
2018-03-29T00:29:28.345Z,875.92
2018-03-29T00:30:28.351Z,875.95
2018-03-29T00:31:28.324Z,875.96
2018-03-29T00:32:28.308Z,875.96
2018-03-29T00:33:28.290Z,876.01
2018-03-29T00:34:28.286Z,875.99
2018-03-29T00:35:28.270Z,875.99
2018-03-29T00:36:28.258Z,876.01
2018-03-29T00:37:28.242Z,875.97
2018-03-29T00:38:28.230Z,875.99
2018-03-29T00:39:28.218Z,875.95
2018-03-29T00:40:28.205Z,875.95
2018-03-29T00:41:28.217Z,875.93
2018-03-29T00:42:28.183Z,875.92
2018-03-29T00:43:28.171Z,875.91
2018-03-29T00:44:28.163Z,875.88
2018-03-29T00:45:28.146Z,875.92
2018-03-29T00:46:28.134Z,875.90
2018-03-29T00:47:28.114Z,875.90
2018-03-29T00:48:28.108Z,875.92
2018-03-29T00:49:28.086Z,875.93
2018-03-29T00:50:28.077Z,875.93
2018-03-29T00:51:28.064Z,875.94
2018-03-29T00:52:28.058Z,875.95
2018-03-29T00:53:28.038Z,875.94
2018-03-29T00:54:28.032Z,875.92
2018-03-29T00:55:28.018Z,875.94
2018-03-29T00:56:27.997Z,875.95
2018-03-29T00:57:27.995Z,875.96
2018-03-29T00:58:27.977Z,875.95
2018-03-29T00:59:27.963Z,875.94
2018-03-29T01:00:27.949Z,875.93
2018-03-29T01:01:27.939Z,875.93
2018-03-29T01:02:27.930Z,875.93
2018-03-29T01:03:27.910Z,875.98
2018-03-29T01:04:27.905Z,876.00
2018-03-29T01:05:27.886Z,875.98
2018-03-29T01:06:27.874Z,875.98
2018-03-29T01:07:27.865Z,875.97
2018-03-29T01:08:27.849Z,875.97
2018-03-29T01:09:27.839Z,875.95
2018-03-29T01:10:27.829Z,875.99
2018-03-29T01:11:27.813Z,875.99
2018-03-29T01:12:27.799Z,875.96
2018-03-29T01:13:27.782Z,876.00
2018-03-29T01:14:27.770Z,875.99
2018-03-29T01:15:27.760Z,876.01
2018-03-29T01:16:27.750Z,876.07
2018-03-29T01:17:27.736Z,876.04
2018-03-29T01:18:27.717Z,876.06
2018-03-29T01:19:27.706Z,876.03
2018-03-29T01:20:27.714Z,876.07
2018-03-29T01:21:27.682Z,876.00
2018-03-29T01:22:27.674Z,875.99
2018-03-29T01:23:27.657Z,875.99
2018-03-29T01:24:27.647Z,876.00
2018-03-29T01:25:27.633Z,876.01
2018-03-29T01:26:27.619Z,876.02
2018-03-29T01:27:27.605Z,876.00
2018-03-29T01:28:27.594Z,875.99
2018-03-29T01:29:27.584Z,876.00
2018-03-29T01:30:27.567Z,876.00
2018-03-29T01:31:27.558Z,875.97
2018-03-29T01:32:27.545Z,875.94
2018-03-29T01:33:27.531Z,876.01
2018-03-29T01:34:27.517Z,875.97
2018-03-29T01:35:27.505Z,876.00
2018-03-29T01:36:27.492Z,875.97
2018-03-29T01:37:27.482Z,875.95
2018-03-29T01:38:27.468Z,875.99
2018-03-29T01:39:27.450Z,875.98
2018-03-29T01:40:27.438Z,875.96
2018-03-29T01:41:27.424Z,875.94
2018-03-29T01:42:27.414Z,875.93
2018-03-29T01:43:27.400Z,875.96
2018-03-29T01:44:27.390Z,875.97
2018-03-29T01:45:27.373Z,875.98
2018-03-29T01:46:27.367Z,875.97
2018-03-29T01:47:27.349Z,875.95
2018-03-29T01:48:27.336Z,875.89
2018-03-29T01:49:27.321Z,875.90
2018-03-29T01:50:27.311Z,875.88
2018-03-29T01:51:27.295Z,875.90
2018-03-29T01:52:27.284Z,875.91
2018-03-29T01:53:27.277Z,875.96
2018-03-29T01:54:27.261Z,875.92
2018-03-29T01:55:27.246Z,875.96
2018-03-29T01:56:27.231Z,875.93
2018-03-29T01:57:27.222Z,875.94
2018-03-29T01:58:27.206Z,875.97
2018-03-29T01:59:27.197Z,875.96
2018-03-29T02:00:27.185Z,875.97
2018-03-29T02:01:27.177Z,875.97
2018-03-29T02:02:27.156Z,875.95
2018-03-29T02:03:27.145Z,875.97
2018-03-29T02:04:27.142Z,875.95
2018-03-29T02:05:27.118Z,875.94
2018-03-29T02:06:27.104Z,875.91
2018-03-29T02:07:27.088Z,875.98
2018-03-29T02:08:27.079Z,875.98
2018-03-29T02:09:27.069Z,876.00
2018-03-29T02:10:27.059Z,875.99
2018-03-29T02:11:27.043Z,876.03
2018-03-29T02:12:27.027Z,876.02
2018-03-29T02:13:27.013Z,876.05
2018-03-29T02:14:27.003Z,876.00
2018-03-29T02:15:26.991Z,876.02
2018-03-29T02:16:26.978Z,876.04
2018-03-29T02:17:26.963Z,876.01
2018-03-29T02:18:26.952Z,876.01
2018-03-29T02:19:26.944Z,876.00
2018-03-29T02:20:26.926Z,876.03
2018-03-29T02:21:26.910Z,876.06
2018-03-29T02:22:26.904Z,876.03
2018-03-29T02:23:26.888Z,876.08
2018-03-29T02:24:26.879Z,876.08
2018-03-29T02:25:26.855Z,876.10
2018-03-29T02:26:26.845Z,876.09
2018-03-29T02:27:26.835Z,876.11
2018-03-29T02:28:26.822Z,876.15
2018-03-29T02:29:26.811Z,876.15
2018-03-29T02:30:26.793Z,876.14
2018-03-29T02:31:26.783Z,876.13
2018-03-29T02:32:26.771Z,876.13
2018-03-29T02:33:26.758Z,876.13
2018-03-29T02:34:26.746Z,876.13
2018-03-29T02:35:26.733Z,876.15
2018-03-29T02:36:26.722Z,876.17
2018-03-29T02:37:26.715Z,876.16
2018-03-29T02:38:26.689Z,876.16
2018-03-29T02:39:26.681Z,876.16
2018-03-29T02:40:26.666Z,876.17
2018-03-29T02:41:26.654Z,876.13
2018-03-29T02:42:26.644Z,876.13
2018-03-29T02:43:26.629Z,876.16
2018-03-29T02:44:26.612Z,876.11
2018-03-29T02:45:26.599Z,876.16
2018-03-29T02:46:26.589Z,876.16
2018-03-29T02:47:26.579Z,876.18
2018-03-29T02:48:26.562Z,876.20
2018-03-29T02:49:26.565Z,876.20
2018-03-29T02:50:26.536Z,876.20
2018-03-29T02:51:26.524Z,876.19
2018-03-29T02:52:26.513Z,876.21
2018-03-29T02:53:26.503Z,876.21
2018-03-29T02:54:26.484Z,876.21
2018-03-29T02:55:26.466Z,876.20
2018-03-29T02:56:26.460Z,876.16
2018-03-29T02:57:26.455Z,876.20
2018-03-29T02:58:26.431Z,876.22
2018-03-29T02:59:26.424Z,876.23
2018-03-29T03:00:26.409Z,876.22
2018-03-29T03:01:26.400Z,876.21
2018-03-29T03:02:26.384Z,876.22
2018-03-29T03:03:26.367Z,876.18
2018-03-29T03:04:26.355Z,876.22
2018-03-29T03:05:26.337Z,876.25
2018-03-29T03:06:26.329Z,876.23
2018-03-29T03:07:26.313Z,876.21
2018-03-29T03:08:26.301Z,876.21
2018-03-29T03:09:26.302Z,876.20
2018-03-29T03:10:26.279Z,876.22
2018-03-29T03:11:26.263Z,876.18
2018-03-29T03:12:26.246Z,876.22
2018-03-29T03:13:26.235Z,876.20
2018-03-29T03:14:26.224Z,876.25
2018-03-29T03:15:26.206Z,876.25
2018-03-29T03:16:26.195Z,876.22
2018-03-29T03:17:26.187Z,876.22
2018-03-29T03:18:26.171Z,876.22
2018-03-29T03:19:26.161Z,876.25
2018-03-29T03:20:26.144Z,876.24
2018-03-29T03:21:26.128Z,876.25
2018-03-29T03:22:26.117Z,876.25
2018-03-29T03:23:26.104Z,876.23
2018-03-29T03:24:26.090Z,876.24
2018-03-29T03:25:26.074Z,876.29
2018-03-29T03:26:26.066Z,876.26
2018-03-29T03:27:26.056Z,876.29
2018-03-29T03:28:26.035Z,876.28
2018-03-29T03:29:26.030Z,876.31
2018-03-29T03:30:26.019Z,876.33
2018-03-29T03:31:26.002Z,876.32
2018-03-29T03:32:25.985Z,876.36
2018-03-29T03:33:25.971Z,876.25
2018-03-29T03:34:25.962Z,876.30
2018-03-29T03:35:25.953Z,876.30
2018-03-29T03:36:25.932Z,876.26
2018-03-29T03:37:25.920Z,876.28
2018-03-29T03:38:25.904Z,876.32
2018-03-29T03:39:25.900Z,876.35
2018-03-29T03:40:25.879Z,876.37
2018-03-29T03:41:25.861Z,876.39
2018-03-29T03:42:25.853Z,876.40
2018-03-29T03:43:25.845Z,876.41
2018-03-29T03:44:25.826Z,876.42
2018-03-29T03:45:25.816Z,876.40
2018-03-29T03:46:25.806Z,876.34
2018-03-29T03:47:25.788Z,876.36
2018-03-29T03:48:25.772Z,876.32
2018-03-29T03:49:25.769Z,876.30
2018-03-29T03:50:25.744Z,876.34
2018-03-29T03:51:25.736Z,876.32
2018-03-29T03:52:25.730Z,876.28
2018-03-29T03:53:25.707Z,876.27
2018-03-29T03:54:25.695Z,876.31
2018-03-29T03:55:25.683Z,876.29
2018-03-29T03:56:25.669Z,876.33
2018-03-29T03:57:25.655Z,876.38
2018-03-29T03:58:25.645Z,876.34
2018-03-29T03:59:25.634Z,876.35
2018-03-29T04:00:25.620Z,876.36
2018-03-29T04:01:25.605Z,876.35
2018-03-29T04:02:25.586Z,876.36
2018-03-29T04:03:25.578Z,876.35
2018-03-29T04:04:25.571Z,876.36
2018-03-29T04:05:25.549Z,876.32
2018-03-29T04:06:25.538Z,876.39
2018-03-29T04:07:25.522Z,876.36
2018-03-29T04:08:25.513Z,876.36
2018-03-29T04:09:25.495Z,876.33
2018-03-29T04:10:25.483Z,876.36
2018-03-29T04:11:25.469Z,876.32
2018-03-29T04:12:25.459Z,876.36
2018-03-29T04:13:25.442Z,876.34
2018-03-29T04:14:25.459Z,876.39
2018-03-29T04:15:25.414Z,876.38
2018-03-29T04:16:25.401Z,876.38
2018-03-29T04:17:25.391Z,876.43
2018-03-29T04:18:25.377Z,876.46
2018-03-29T04:19:25.359Z,876.42
2018-03-29T04:20:25.355Z,876.46
2018-03-29T04:21:25.333Z,876.42
2018-03-29T04:22:25.324Z,876.42
2018-03-29T04:23:25.309Z,876.44
2018-03-29T04:24:25.296Z,876.43
2018-03-29T04:25:25.283Z,876.43
2018-03-29T04:26:25.273Z,876.43
2018-03-29T04:27:25.257Z,876.37
2018-03-29T04:28:25.242Z,876.37
2018-03-29T04:29:25.237Z,876.39
2018-03-29T04:30:25.216Z,876.39
2018-03-29T04:31:25.201Z,876.42
2018-03-29T04:32:25.188Z,876.38
2018-03-29T04:33:25.177Z,876.40
2018-03-29T04:34:25.164Z,876.35
2018-03-29T04:35:25.149Z,876.38
2018-03-29T04:36:25.138Z,876.41
2018-03-29T04:37:25.123Z,876.40
2018-03-29T04:38:25.111Z,876.39
2018-03-29T04:39:25.099Z,876.40
2018-03-29T04:40:25.081Z,876.43
2018-03-29T04:41:25.068Z,876.41
2018-03-29T04:42:25.054Z,876.44
2018-03-29T04:43:25.039Z,876.47
2018-03-29T04:44:25.037Z,876.43
2018-03-29T04:45:25.016Z,876.47
2018-03-29T04:46:25.005Z,876.45
2018-03-29T04:47:24.988Z,876.42
2018-03-29T04:48:24.978Z,876.46
2018-03-29T04:49:24.963Z,876.43
2018-03-29T04:50:24.942Z,876.43
2018-03-29T04:51:24.934Z,876.46
2018-03-29T04:52:24.927Z,876.44
2018-03-29T04:53:24.909Z,876.47
2018-03-29T04:54:24.894Z,876.44
2018-03-29T04:55:24.874Z,876.43
2018-03-29T04:56:24.865Z,876.44
2018-03-29T04:57:24.851Z,876.43
2018-03-29T04:58:24.836Z,876.43
2018-03-29T04:59:24.823Z,876.39
2018-03-29T05:00:24.813Z,876.42
2018-03-29T05:01:24.866Z,876.44
2018-03-29T05:02:24.785Z,876.45
2018-03-29T05:03:24.771Z,876.45
2018-03-29T05:04:24.761Z,876.40
2018-03-29T05:05:24.750Z,876.43
2018-03-29T05:06:24.733Z,876.42
2018-03-29T05:07:24.714Z,876.44
2018-03-29T05:08:24.702Z,876.44
2018-03-29T05:09:24.686Z,876.43
2018-03-29T05:10:24.677Z,876.46
2018-03-29T05:11:24.660Z,876.45
2018-03-29T05:12:24.647Z,876.44
2018-03-29T05:13:24.633Z,876.44
2018-03-29T05:14:24.626Z,876.47
2018-03-29T05:15:24.610Z,876.48
2018-03-29T05:16:24.592Z,876.46
2018-03-29T05:17:24.578Z,876.47
2018-03-29T05:18:24.564Z,876.49
2018-03-29T05:19:24.554Z,876.52
2018-03-29T05:20:24.541Z,876.50
2018-03-29T05:21:24.525Z,876.50
2018-03-29T05:22:24.517Z,876.50
2018-03-29T05:23:24.505Z,876.50
2018-03-29T05:24:24.487Z,876.50
2018-03-29T05:25:24.473Z,876.51
2018-03-29T05:26:24.463Z,876.49
2018-03-29T05:27:24.445Z,876.48
2018-03-29T05:28:24.439Z,876.51
2018-03-29T05:29:24.416Z,876.50
2018-03-29T05:30:24.405Z,876.45
2018-03-29T05:31:24.392Z,876.41
2018-03-29T05:32:24.380Z,876.43
2018-03-29T05:33:24.364Z,876.42
2018-03-29T05:34:24.349Z,876.44
2018-03-29T05:35:24.335Z,876.46
2018-03-29T05:36:24.326Z,876.49
2018-03-29T05:37:24.314Z,876.45
2018-03-29T05:38:24.300Z,876.46
2018-03-29T05:39:24.283Z,876.46
2018-03-29T05:40:24.270Z,876.47
2018-03-29T05:41:24.259Z,876.53
2018-03-29T05:42:24.244Z,876.58
2018-03-29T05:43:24.226Z,876.63
2018-03-29T05:44:24.220Z,876.58
2018-03-29T05:45:24.195Z,876.53
2018-03-29T05:46:24.178Z,876.49
2018-03-29T05:47:24.174Z,876.49
2018-03-29T05:48:24.159Z,876.58
2018-03-29T05:49:24.143Z,876.63
2018-03-29T05:50:24.131Z,876.72
2018-03-29T05:51:24.119Z,876.74
2018-03-29T05:52:24.121Z,876.67
2018-03-29T05:53:24.088Z,876.55
2018-03-29T05:54:24.080Z,876.50
2018-03-29T05:55:24.066Z,876.51
2018-03-29T05:56:24.049Z,876.58
2018-03-29T05:57:24.041Z,876.69
2018-03-29T05:58:24.025Z,876.72
2018-03-29T05:59:24.010Z,876.72
2018-03-29T06:00:23.995Z,876.65
2018-03-29T06:01:23.978Z,876.61
2018-03-29T06:02:23.965Z,876.57
2018-03-29T06:03:23.955Z,876.60
2018-03-29T06:04:23.939Z,876.65
2018-03-29T06:05:23.924Z,876.71
2018-03-29T06:06:23.910Z,876.70
2018-03-29T06:07:23.897Z,876.62
2018-03-29T06:08:23.878Z,876.55
2018-03-29T06:09:23.873Z,876.56
2018-03-29T06:10:23.853Z,876.65
2018-03-29T06:11:23.842Z,876.72
2018-03-29T06:12:23.828Z,876.78
2018-03-29T06:13:23.808Z,876.74
2018-03-29T06:14:23.800Z,876.69
2018-03-29T06:15:23.781Z,876.64
2018-03-29T06:16:23.769Z,876.59
2018-03-29T06:17:23.756Z,876.62
2018-03-29T06:18:23.741Z,876.66
2018-03-29T06:19:23.729Z,876.69
2018-03-29T06:20:23.712Z,876.69
2018-03-29T06:21:23.713Z,876.71
2018-03-29T06:22:23.687Z,876.68
2018-03-29T06:23:23.714Z,876.70
2018-03-29T06:24:23.661Z,876.71
2018-03-29T06:25:23.645Z,876.71
2018-03-29T06:26:23.635Z,876.71
2018-03-29T06:27:23.615Z,876.73
2018-03-29T06:28:23.602Z,876.73
2018-03-29T06:29:23.585Z,876.72
2018-03-29T06:30:23.581Z,876.75
2018-03-29T06:31:23.561Z,876.77
2018-03-29T06:32:23.548Z,876.79
2018-03-29T06:33:23.535Z,876.80
2018-03-29T06:34:23.516Z,876.82
2018-03-29T06:35:23.500Z,876.82
2018-03-29T06:36:23.494Z,876.84
2018-03-29T06:37:23.475Z,876.82
2018-03-29T06:38:23.465Z,876.81
2018-03-29T06:39:23.452Z,876.81
2018-03-29T06:40:23.438Z,876.80
2018-03-29T06:41:23.419Z,876.82
2018-03-29T06:42:23.402Z,876.82
2018-03-29T06:43:23.392Z,876.84
2018-03-29T06:44:23.383Z,876.84
2018-03-29T06:45:23.366Z,876.84
2018-03-29T06:46:23.370Z,876.85
2018-03-29T06:47:23.336Z,876.89
2018-03-29T06:48:23.322Z,876.84
2018-03-29T06:49:23.312Z,876.88
2018-03-29T06:50:23.296Z,876.91
2018-03-29T06:51:23.280Z,876.91
2018-03-29T06:52:23.267Z,876.91
2018-03-29T06:53:23.255Z,876.91
2018-03-29T06:54:23.241Z,876.93
2018-03-29T06:55:23.225Z,876.94
2018-03-29T06:56:23.224Z,876.96
2018-03-29T06:57:23.200Z,876.99
2018-03-29T06:58:23.188Z,876.95
2018-03-29T06:59:23.170Z,877.00
2018-03-29T07:00:23.159Z,876.98
2018-03-29T07:01:23.140Z,876.98
2018-03-29T07:02:23.130Z,877.00
2018-03-29T07:03:23.114Z,877.05
2018-03-29T07:04:23.101Z,877.06
2018-03-29T07:05:23.085Z,877.06
2018-03-29T07:06:23.069Z,877.03
2018-03-29T07:07:23.062Z,877.06
2018-03-29T07:08:23.049Z,877.06
2018-03-29T07:09:23.030Z,877.04
2018-03-29T07:10:23.020Z,877.06
2018-03-29T07:11:23.001Z,877.01
2018-03-29T07:12:22.988Z,877.05
2018-03-29T07:13:22.980Z,877.03
2018-03-29T07:14:22.964Z,877.07
2018-03-29T07:15:22.946Z,877.07
2018-03-29T07:16:22.934Z,877.04
2018-03-29T07:17:22.924Z,877.06
2018-03-29T07:18:22.906Z,877.09
2018-03-29T07:19:22.890Z,877.05
2018-03-29T07:20:22.877Z,877.05
2018-03-29T07:21:22.865Z,877.08
2018-03-29T07:22:22.849Z,877.07
2018-03-29T07:23:22.843Z,877.06
2018-03-29T07:24:22.824Z,877.05
2018-03-29T07:25:22.808Z,877.06
2018-03-29T07:26:22.796Z,877.05
2018-03-29T07:27:22.786Z,877.04
2018-03-29T07:28:22.769Z,877.02
2018-03-29T07:29:22.755Z,877.03
2018-03-29T07:30:22.741Z,877.04
2018-03-29T07:31:22.725Z,877.02
2018-03-29T07:32:22.713Z,877.04
2018-03-29T07:33:22.698Z,877.04
2018-03-29T07:34:22.683Z,877.04
2018-03-29T07:35:22.671Z,877.02
2018-03-29T07:36:22.663Z,877.03
2018-03-29T07:37:22.646Z,877.01
2018-03-29T07:38:22.628Z,877.01
2018-03-29T07:39:22.618Z,876.99
2018-03-29T07:40:22.609Z,876.95
2018-03-29T07:41:22.588Z,876.97
2018-03-29T07:42:22.570Z,876.97
2018-03-29T07:43:22.562Z,876.97
2018-03-29T07:44:22.547Z,876.98
2018-03-29T07:45:22.533Z,876.98
2018-03-29T07:46:22.524Z,877.01
2018-03-29T07:47:22.501Z,876.98
2018-03-29T07:48:22.493Z,877.04
2018-03-29T07:49:22.477Z,877.03
2018-03-29T07:50:22.465Z,877.02
2018-03-29T07:51:22.459Z,877.04
2018-03-29T07:52:22.442Z,877.02
2018-03-29T07:53:22.426Z,877.05
2018-03-29T07:54:22.412Z,877.04
2018-03-29T07:55:22.401Z,877.06
2018-03-29T07:56:22.387Z,877.07
2018-03-29T07:57:22.371Z,877.10
2018-03-29T07:58:22.353Z,877.08
2018-03-29T07:59:22.339Z,877.13
2018-03-29T08:00:22.353Z,877.10
2018-03-29T08:01:22.316Z,877.13
2018-03-29T08:02:22.304Z,877.09
2018-03-29T08:03:22.291Z,877.11
2018-03-29T08:04:22.274Z,877.07
2018-03-29T08:05:22.268Z,877.06
2018-03-29T08:06:22.250Z,877.08
2018-03-29T08:07:22.236Z,877.09
2018-03-29T08:08:22.226Z,877.13
2018-03-29T08:09:22.210Z,877.12
2018-03-29T08:10:22.191Z,877.14
2018-03-29T08:11:22.187Z,877.13
2018-03-29T08:12:22.178Z,877.14
2018-03-29T08:13:22.157Z,877.18
2018-03-29T08:14:22.143Z,877.17
2018-03-29T08:15:22.133Z,877.17
2018-03-29T08:16:22.119Z,877.15
2018-03-29T08:17:22.105Z,877.14
2018-03-29T08:18:22.094Z,877.14
2018-03-29T08:19:22.078Z,877.14
2018-03-29T08:20:22.065Z,877.17
2018-03-29T08:21:22.050Z,877.23
2018-03-29T08:22:22.038Z,877.21
2018-03-29T08:23:22.024Z,877.22
2018-03-29T08:24:22.014Z,877.25
2018-03-29T08:25:22.000Z,877.26
2018-03-29T08:26:21.992Z,877.25
2018-03-29T08:27:21.984Z,877.27
2018-03-29T08:28:21.959Z,877.26
2018-03-29T08:29:21.956Z,877.26
2018-03-29T08:30:21.933Z,877.25
2018-03-29T08:31:21.920Z,877.21
2018-03-29T08:32:21.908Z,877.24
2018-03-29T08:33:21.894Z,877.23
2018-03-29T08:34:21.882Z,877.23
2018-03-29T08:35:21.860Z,877.18
2018-03-29T08:36:21.852Z,877.20
2018-03-29T08:37:21.840Z,877.21
2018-03-29T08:38:21.829Z,877.19
2018-03-29T08:39:21.813Z,877.23
2018-03-29T08:40:21.797Z,877.23
2018-03-29T08:41:21.789Z,877.26
2018-03-29T08:42:21.774Z,877.26
2018-03-29T08:43:21.761Z,877.29
2018-03-29T08:44:21.751Z,877.31
2018-03-29T08:45:21.729Z,877.32
2018-03-29T08:46:21.725Z,877.34
2018-03-29T08:47:21.707Z,877.35
2018-03-29T08:48:21.700Z,877.34
2018-03-29T08:49:21.683Z,877.34
2018-03-29T08:50:21.671Z,877.34
2018-03-29T08:51:21.658Z,877.36
2018-03-29T08:52:21.642Z,877.37
2018-03-29T08:53:21.632Z,877.37
2018-03-29T08:54:21.621Z,877.36
2018-03-29T08:55:21.604Z,877.41
2018-03-29T08:56:21.586Z,877.39
2018-03-29T08:57:21.577Z,877.37
2018-03-29T08:58:21.564Z,877.38
2018-03-29T08:59:21.549Z,877.36
2018-03-29T09:00:21.538Z,877.33
2018-03-29T09:01:21.524Z,877.33
2018-03-29T09:02:21.508Z,877.32
2018-03-29T09:03:21.498Z,877.35
2018-03-29T09:04:21.483Z,877.34
2018-03-29T09:05:21.470Z,877.37
2018-03-29T09:06:21.457Z,877.38
2018-03-29T09:07:21.444Z,877.37
2018-03-29T09:08:21.432Z,877.36
2018-03-29T09:09:21.423Z,877.33
2018-03-29T09:10:21.408Z,877.31
2018-03-29T09:11:21.398Z,877.31
2018-03-29T09:12:21.375Z,877.33
2018-03-29T09:13:21.365Z,877.26
2018-03-29T09:14:21.354Z,877.29
2018-03-29T09:15:21.340Z,877.32
2018-03-29T09:16:21.326Z,877.38
2018-03-29T09:17:21.315Z,877.32
2018-03-29T09:18:21.306Z,877.33
2018-03-29T09:19:21.290Z,877.31
2018-03-29T09:20:21.277Z,877.28
2018-03-29T09:21:21.267Z,877.29
2018-03-29T09:22:21.255Z,877.25
2018-03-29T09:23:21.243Z,877.29
2018-03-29T09:24:21.224Z,877.29
2018-03-29T09:25:21.217Z,877.32
2018-03-29T09:26:21.203Z,877.32
2018-03-29T09:27:21.189Z,877.34
2018-03-29T09:28:21.180Z,877.31
2018-03-29T09:29:21.160Z,877.27
2018-03-29T09:30:21.149Z,877.24
2018-03-29T09:31:21.138Z,877.20
2018-03-29T09:32:21.131Z,877.24
2018-03-29T09:33:21.108Z,877.27
2018-03-29T09:34:21.102Z,877.26
2018-03-29T09:35:21.085Z,877.30
2018-03-29T09:36:21.076Z,877.29
2018-03-29T09:37:21.060Z,877.26
2018-03-29T09:38:21.048Z,877.26
2018-03-29T09:39:21.036Z,877.23
2018-03-29T09:40:21.026Z,877.19
2018-03-29T09:41:21.009Z,877.23
2018-03-29T09:42:20.997Z,877.21
2018-03-29T09:43:20.983Z,877.21
2018-03-29T09:44:20.972Z,877.23
2018-03-29T09:45:20.961Z,877.24
2018-03-29T09:46:20.948Z,877.25
2018-03-29T09:47:20.935Z,877.28
2018-03-29T09:48:20.923Z,877.24
2018-03-29T09:49:20.912Z,877.22
2018-03-29T09:50:20.899Z,877.17
2018-03-29T09:51:20.885Z,877.15
2018-03-29T09:52:20.872Z,877.17
2018-03-29T09:53:20.855Z,877.20
2018-03-29T09:54:20.847Z,877.17
2018-03-29T09:55:20.831Z,877.17
2018-03-29T09:56:20.821Z,877.19
2018-03-29T09:57:20.805Z,877.19
2018-03-29T09:58:20.792Z,877.20
2018-03-29T09:59:20.780Z,877.20
2018-03-29T10:00:20.769Z,877.19
2018-03-29T10:01:20.756Z,877.23
2018-03-29T10:02:20.743Z,877.22
2018-03-29T10:03:20.726Z,877.22
2018-03-29T10:04:20.718Z,877.19
2018-03-29T10:05:20.700Z,877.16
2018-03-29T10:06:20.690Z,877.19
2018-03-29T10:07:20.677Z,877.19
2018-03-29T10:08:20.664Z,877.18
2018-03-29T10:09:20.657Z,877.18
2018-03-29T10:10:20.640Z,877.18
2018-03-29T10:11:20.627Z,877.12
2018-03-29T10:12:20.618Z,877.12
2018-03-29T10:13:20.605Z,877.12
2018-03-29T10:14:20.590Z,877.07
2018-03-29T10:15:20.576Z,877.07
2018-03-29T10:16:20.564Z,877.08
2018-03-29T10:17:20.560Z,877.07
2018-03-29T10:18:20.536Z,877.08
2018-03-29T10:19:20.527Z,877.10
2018-03-29T10:20:20.515Z,877.06
2018-03-29T10:21:20.504Z,877.01
2018-03-29T10:22:20.488Z,876.99
2018-03-29T10:23:20.482Z,877.00
2018-03-29T10:24:20.464Z,876.99
2018-03-29T10:25:20.454Z,877.03
2018-03-29T10:26:20.442Z,877.01
2018-03-29T10:27:20.428Z,877.02
2018-03-29T10:28:20.410Z,877.00
2018-03-29T10:29:20.406Z,876.99
2018-03-29T10:30:20.391Z,877.00
2018-03-29T10:31:20.378Z,877.04
2018-03-29T10:32:20.365Z,877.06
2018-03-29T10:33:20.353Z,877.08
2018-03-29T10:34:20.336Z,877.13
2018-03-29T10:35:20.328Z,877.16
2018-03-29T10:36:20.313Z,877.15
2018-03-29T10:37:20.304Z,877.14
2018-03-29T10:38:20.285Z,877.18
2018-03-29T10:39:20.279Z,877.12
2018-03-29T10:40:20.265Z,877.16
2018-03-29T10:41:20.254Z,877.15
2018-03-29T10:42:20.238Z,877.16
2018-03-29T10:43:20.225Z,877.14
2018-03-29T10:44:20.217Z,877.10
2018-03-29T10:45:20.202Z,877.11
2018-03-29T10:46:20.187Z,877.10
2018-03-29T10:47:20.175Z,877.09
2018-03-29T10:48:20.164Z,877.07
2018-03-29T10:49:20.155Z,877.08
2018-03-29T10:50:20.140Z,877.05
2018-03-29T10:51:20.131Z,877.08
2018-03-29T10:52:20.116Z,877.05
2018-03-29T10:53:20.101Z,876.99
2018-03-29T10:54:20.082Z,877.01
2018-03-29T10:55:20.078Z,877.03
2018-03-29T10:56:20.066Z,876.99
2018-03-29T10:57:20.046Z,877.03
2018-03-29T10:58:20.038Z,877.03
2018-03-29T10:59:20.024Z,877.01
2018-03-29T11:00:20.014Z,877.04
2018-03-29T11:01:19.998Z,876.98
2018-03-29T11:02:19.990Z,876.97
2018-03-29T11:03:19.980Z,876.94
2018-03-29T11:04:19.968Z,876.91
2018-03-29T11:05:19.955Z,876.96
2018-03-29T11:06:19.943Z,876.94
2018-03-29T11:07:19.927Z,876.95
2018-03-29T11:08:19.917Z,876.96
2018-03-29T11:09:19.904Z,876.93
2018-03-29T11:10:19.894Z,876.95
2018-03-29T11:11:19.884Z,876.98
2018-03-29T11:12:19.869Z,876.99
2018-03-29T11:13:19.855Z,876.96
2018-03-29T11:14:19.841Z,876.93
2018-03-29T11:15:19.827Z,876.89
2018-03-29T11:16:19.819Z,876.87
2018-03-29T11:17:19.805Z,876.85
2018-03-29T11:18:19.790Z,876.84
2018-03-29T11:19:19.779Z,876.83
2018-03-29T11:20:19.779Z,876.81
2018-03-29T11:21:19.761Z,876.81
2018-03-29T11:22:19.753Z,876.82
2018-03-29T11:23:19.736Z,876.88
2018-03-29T11:24:19.727Z,876.84
2018-03-29T11:25:19.715Z,876.83
2018-03-29T11:26:19.703Z,876.72
2018-03-29T11:27:19.698Z,876.76
2018-03-29T11:28:19.681Z,876.78
2018-03-29T11:29:19.663Z,876.84
2018-03-29T11:30:19.655Z,876.79
2018-03-29T11:31:19.643Z,876.79
2018-03-29T11:32:19.632Z,876.75
2018-03-29T11:33:19.620Z,876.79
2018-03-29T11:34:19.607Z,876.79
2018-03-29T11:35:19.600Z,876.78
2018-03-29T11:36:19.586Z,876.79
2018-03-29T11:37:19.578Z,876.75
2018-03-29T11:38:19.568Z,876.74
2018-03-29T11:39:19.558Z,876.68
2018-03-29T11:40:19.548Z,876.63
2018-03-29T11:41:19.530Z,876.58
2018-03-29T11:42:19.527Z,876.56
2018-03-29T11:43:19.514Z,876.55
2018-03-29T11:44:19.503Z,876.52
2018-03-29T11:45:19.493Z,876.49
2018-03-29T11:46:20.053Z,876.43
2018-03-29T11:47:19.465Z,876.39
2018-03-29T11:48:19.461Z,876.39
2018-03-29T11:49:19.452Z,876.35
2018-03-29T11:50:19.438Z,876.33
2018-03-29T11:51:19.425Z,876.34
2018-03-29T11:52:19.423Z,876.33
2018-03-29T11:53:19.403Z,876.33
2018-03-29T11:54:19.394Z,876.31
2018-03-29T11:55:19.386Z,876.32
2018-03-29T11:56:19.376Z,876.33
2018-03-29T11:57:19.364Z,876.33
2018-03-29T11:58:19.351Z,876.33
2018-03-29T11:59:19.342Z,876.37
2018-03-29T12:00:19.333Z,876.33
2018-03-29T12:01:19.319Z,876.34
2018-03-29T12:02:19.309Z,876.37
2018-03-29T12:03:19.315Z,876.33
2018-03-29T12:04:19.292Z,876.32
2018-03-29T12:05:19.277Z,876.35
2018-03-29T12:06:19.269Z,876.39
2018-03-29T12:07:19.255Z,876.41
2018-03-29T12:08:19.244Z,876.38
2018-03-29T12:09:19.231Z,876.40
2018-03-29T12:10:19.225Z,876.39
2018-03-29T12:11:19.214Z,876.41
2018-03-29T12:12:19.203Z,876.35
2018-03-29T12:13:19.188Z,876.34
2018-03-29T12:14:19.185Z,876.34
2018-03-29T12:15:19.163Z,876.30
2018-03-29T12:16:19.162Z,876.26
2018-03-29T12:17:19.148Z,876.26
2018-03-29T12:18:19.139Z,876.26
2018-03-29T12:19:19.127Z,876.30
2018-03-29T12:20:19.115Z,876.27
2018-03-29T12:21:19.100Z,876.29
2018-03-29T12:22:19.098Z,876.31
2018-03-29T12:23:19.085Z,876.31
2018-03-29T12:24:19.071Z,876.27
2018-03-29T12:25:19.057Z,876.22
2018-03-29T12:26:19.051Z,876.25
2018-03-29T12:27:19.037Z,876.22
2018-03-29T12:28:19.026Z,876.24